createdAt,value
2023-05-30T00:01:29.724Z,4.97
2023-05-30T00:04:01.666Z,4.86
2023-05-30T00:06:30.216Z,4.79
2023-05-30T00:08:58.652Z,4.65
2023-05-30T00:11:29.596Z,4.59
2023-05-30T00:13:58.047Z,4.60
2023-05-30T00:16:27.317Z,4.58
2023-05-30T00:18:57.628Z,4.52
2023-05-30T00:21:29.927Z,4.51
2023-05-30T00:23:58.345Z,4.54
2023-05-30T00:26:27.447Z,4.53
2023-05-30T00:28:56.168Z,4.57
2023-05-30T00:31:24.583Z,4.57
2023-05-30T00:33:54.954Z,4.55
2023-05-30T00:36:23.401Z,4.48
2023-05-30T00:38:53.651Z,4.40
2023-05-30T00:41:22.074Z,4.34
2023-05-30T00:43:50.902Z,4.35
2023-05-30T00:46:20.486Z,4.36
2023-05-30T00:48:49.342Z,4.33
2023-05-30T00:51:20.480Z,4.28
2023-05-30T00:53:49.021Z,4.27
2023-05-30T00:56:18.925Z,4.29
2023-05-30T00:58:48.714Z,4.26
2023-05-30T01:01:19.929Z,4.28
2023-05-30T01:03:49.936Z,4.28
2023-05-30T01:06:21.465Z,4.27
2023-05-30T01:08:49.992Z,4.28
2023-05-30T01:11:31.448Z,4.26
2023-05-30T01:14:08.714Z,4.18
2023-05-30T01:16:45.717Z,4.12
2023-05-30T01:19:36.122Z,4.11
2023-05-30T01:22:17.842Z,4.06
2023-05-30T01:24:55.723Z,3.98
2023-05-30T01:27:34.779Z,3.85
2023-05-30T01:30:06.312Z,3.73
2023-05-30T01:32:35.140Z,3.68
2023-05-30T01:35:03.553Z,3.64
2023-05-30T01:37:32.789Z,3.60
2023-05-30T01:40:01.191Z,3.57
2023-05-30T01:42:33.314Z,3.56
2023-05-30T01:45:10.219Z,3.56
2023-05-30T01:47:47.920Z,3.54
2023-05-30T01:50:19.925Z,3.53
2023-05-30T01:52:53.093Z,3.50
2023-05-30T01:55:23.933Z,3.43
2023-05-30T01:57:53.392Z,3.39
2023-05-30T02:00:27.534Z,3.37
2023-05-30T02:02:56.265Z,3.33
2023-05-30T02:05:25.311Z,3.28
2023-05-30T02:07:53.798Z,3.27
2023-05-30T02:10:22.815Z,3.31
2023-05-30T02:12:52.514Z,3.34
2023-05-30T02:15:20.887Z,3.34
2023-05-30T02:17:50.799Z,3.36
2023-05-30T02:20:19.568Z,3.29
2023-05-30T02:22:48.010Z,3.23
2023-05-30T02:25:16.403Z,3.30
2023-05-30T02:27:44.875Z,3.35
2023-05-30T02:30:14.450Z,3.39
2023-05-30T02:32:42.974Z,3.45
2023-05-30T02:35:12.940Z,3.47
2023-05-30T02:37:41.872Z,3.44
2023-05-30T02:40:12.026Z,3.54
2023-05-30T02:42:40.660Z,3.63
2023-05-30T02:45:10.550Z,3.72
2023-05-30T02:47:42.987Z,3.74
2023-05-30T02:50:13.172Z,3.86
2023-05-30T02:52:42.657Z,3.96
2023-05-30T02:55:14.199Z,4.10
2023-05-30T02:58:01.460Z,4.19
2023-05-30T03:00:50.972Z,4.29
2023-05-30T03:03:26.383Z,4.37
2023-05-30T03:06:06.311Z,4.48
2023-05-30T03:08:47.241Z,4.53
2023-05-30T03:11:15.698Z,4.60
2023-05-30T03:13:44.201Z,4.67
2023-05-30T03:16:13.305Z,4.75
2023-05-30T03:18:42.336Z,4.80
2023-05-30T03:21:13.010Z,4.86
2023-05-30T03:23:41.600Z,4.90
2023-05-30T03:26:10.465Z,4.93
2023-05-30T03:28:39.079Z,4.99
2023-05-30T03:31:23.559Z,5.04
2023-05-30T03:33:52.548Z,5.05
2023-05-30T03:36:23.331Z,5.05
2023-05-30T03:38:51.818Z,5.08
2023-05-30T03:41:20.646Z,5.11
2023-05-30T03:43:49.318Z,5.12
2023-05-30T03:46:20.764Z,5.16
2023-05-30T03:48:50.334Z,5.17
2023-05-30T03:51:18.830Z,5.18
2023-05-30T03:53:48.732Z,5.22
2023-05-30T03:56:17.248Z,5.30
2023-05-30T03:58:45.930Z,5.31
2023-05-30T04:01:14.381Z,5.31
2023-05-30T04:03:44.850Z,5.32
2023-05-30T04:06:14.290Z,5.33
2023-05-30T04:08:42.717Z,5.34
2023-05-30T04:11:12.732Z,5.36
2023-05-30T04:13:41.228Z,5.39
2023-05-30T04:16:10.635Z,5.43
2023-05-30T04:18:44.865Z,5.43
2023-05-30T04:21:14.418Z,5.44
2023-05-30T04:23:44.840Z,5.46
2023-05-30T04:26:14.916Z,5.52
2023-05-30T04:28:44.868Z,5.56
2023-05-30T04:31:21.645Z,5.56
2023-05-30T04:33:52.624Z,5.59
2023-05-30T04:36:22.937Z,5.64
2023-05-30T04:38:53.716Z,5.65
2023-05-30T04:41:27.336Z,5.68
2023-05-30T04:43:58.934Z,5.68
2023-05-30T04:46:29.677Z,5.71
2023-05-30T04:49:03.021Z,5.75
2023-05-30T04:51:34.631Z,5.77
2023-05-30T04:54:03.142Z,5.79
2023-05-30T04:56:32.893Z,5.80
2023-05-30T04:59:01.286Z,5.85
2023-05-30T05:01:30.049Z,5.89
2023-05-30T05:03:58.586Z,5.92
2023-05-30T05:06:27.075Z,5.97
2023-05-30T05:08:55.529Z,5.99
2023-05-30T05:11:23.908Z,6.00
2023-05-30T05:13:53.692Z,6.04
2023-05-30T05:16:22.225Z,6.07
2023-05-30T05:18:50.668Z,6.07
2023-05-30T05:21:19.104Z,6.12
2023-05-30T05:23:47.608Z,6.11
2023-05-30T05:26:16.397Z,6.15
2023-05-30T05:28:44.778Z,6.19
2023-05-30T05:31:14.727Z,6.24
2023-05-30T05:33:43.483Z,6.26
2023-05-30T05:36:12.168Z,6.23
2023-05-30T05:38:40.777Z,6.25
2023-05-30T05:41:09.307Z,6.30
2023-05-30T05:43:38.332Z,6.36
2023-05-30T05:46:06.752Z,6.39
2023-05-30T05:48:36.872Z,6.42
2023-05-30T05:51:05.367Z,6.44
2023-05-30T05:53:33.864Z,6.46
2023-05-30T05:56:02.645Z,6.50
2023-05-30T05:58:30.998Z,6.57
2023-05-30T06:00:59.674Z,6.62
2023-05-30T06:03:28.160Z,6.63
2023-05-30T06:05:58.028Z,6.67
2023-05-30T06:08:26.446Z,6.67
2023-05-30T06:10:55.177Z,6.72
2023-05-30T06:13:23.777Z,6.73
2023-05-30T06:15:52.185Z,6.74
2023-05-30T06:18:20.532Z,6.76
2023-05-30T06:20:49.142Z,6.78
2023-05-30T06:23:19.097Z,6.81
2023-05-30T06:25:47.860Z,6.90
2023-05-30T06:28:16.269Z,6.97
2023-05-30T06:30:44.796Z,7.02
2023-05-30T06:33:13.155Z,7.03
2023-05-30T06:35:41.633Z,7.08
2023-05-30T06:38:10.181Z,7.16
2023-05-30T06:40:40.654Z,7.20
2023-05-30T06:43:09.076Z,7.23
2023-05-30T06:45:37.553Z,7.30
2023-05-30T06:48:06.478Z,7.38
2023-05-30T06:50:35.025Z,7.43
2023-05-30T06:53:03.573Z,7.47
2023-05-30T06:55:32.257Z,7.57
2023-05-30T06:58:02.107Z,7.63
2023-05-30T07:00:30.821Z,7.69
2023-05-30T07:02:59.729Z,7.72
2023-05-30T07:05:28.212Z,7.75
2023-05-30T07:07:56.632Z,7.78
2023-05-30T07:10:25.208Z,7.78
2023-05-30T07:12:53.816Z,7.84
2023-05-30T07:15:23.772Z,7.84
2023-05-30T07:17:52.229Z,7.88
2023-05-30T07:20:24.291Z,7.95
2023-05-30T07:22:53.086Z,7.96
2023-05-30T07:25:21.912Z,8.00
2023-05-30T07:27:50.415Z,8.05
2023-05-30T07:30:18.892Z,8.13
2023-05-30T07:32:48.779Z,8.21
2023-05-30T07:35:17.189Z,8.29
2023-05-30T07:37:46.138Z,8.35
2023-05-30T07:40:18.483Z,8.45
2023-05-30T07:42:48.443Z,8.46
2023-05-30T07:45:17.057Z,8.52
2023-05-30T07:47:45.660Z,8.62
2023-05-30T07:50:15.828Z,8.65
2023-05-30T07:52:44.293Z,8.65
2023-05-30T07:55:12.785Z,8.71
2023-05-30T07:57:41.378Z,8.74
2023-05-30T08:00:11.585Z,8.74
2023-05-30T08:02:40.075Z,8.79
2023-05-30T08:05:09.047Z,8.78
2023-05-30T08:07:40.047Z,8.87
2023-05-30T08:10:09.947Z,8.90
2023-05-30T08:12:39.534Z,8.89
2023-05-30T08:15:10.585Z,8.93
2023-05-30T08:17:39.128Z,8.88
2023-05-30T08:20:09.843Z,8.90
2023-05-30T08:22:40.918Z,8.99
2023-05-30T08:25:10.526Z,9.15
2023-05-30T08:27:39.609Z,9.30
2023-05-30T08:30:09.280Z,9.43
2023-05-30T08:32:39.312Z,9.63
2023-05-30T08:35:09.009Z,9.87
2023-05-30T08:37:37.952Z,10.02
2023-05-30T08:40:11.872Z,10.19
2023-05-30T08:42:41.301Z,10.07
2023-05-30T08:45:11.067Z,9.89
2023-05-30T08:47:41.226Z,9.75
2023-05-30T08:50:10.723Z,9.67
2023-05-30T08:52:40.917Z,9.77
2023-05-30T08:55:16.038Z,9.98
2023-05-30T08:57:50.449Z,10.29
2023-05-30T09:00:20.283Z,10.54
2023-05-30T09:02:51.203Z,10.73
2023-05-30T09:05:20.698Z,10.84
2023-05-30T09:07:50.399Z,10.76
2023-05-30T09:10:22.030Z,10.67
2023-05-30T09:12:50.541Z,10.77
2023-05-30T09:15:19.302Z,10.84
2023-05-30T09:17:51.753Z,10.74
2023-05-30T09:20:20.672Z,10.65
2023-05-30T09:22:49.387Z,10.62
2023-05-30T09:25:19.271Z,10.64
2023-05-30T09:27:50.582Z,10.75
2023-05-30T09:30:24.424Z,10.80
2023-05-30T09:33:06.658Z,10.94
2023-05-30T09:35:39.303Z,11.03
2023-05-30T09:38:08.785Z,11.07
2023-05-30T09:40:38.631Z,11.21
2023-05-30T09:43:07.552Z,11.45
2023-05-30T09:45:35.950Z,11.56
2023-05-30T09:48:05.717Z,11.48
2023-05-30T09:50:34.082Z,11.57
2023-05-30T09:53:02.548Z,11.42
2023-05-30T09:55:31.648Z,11.24
2023-05-30T09:58:01.666Z,11.09
2023-05-30T10:00:31.498Z,11.22
2023-05-30T10:03:00.341Z,11.26
2023-05-30T10:05:30.254Z,11.24
2023-05-30T10:07:59.716Z,11.31
2023-05-30T10:10:28.313Z,11.36
2023-05-30T10:12:58.640Z,11.56
2023-05-30T10:15:28.526Z,11.77
2023-05-30T10:18:00.884Z,12.00
2023-05-30T10:20:30.234Z,12.20
2023-05-30T10:22:59.068Z,12.35
2023-05-30T10:25:32.206Z,12.46
2023-05-30T10:28:03.805Z,12.28
2023-05-30T10:30:36.013Z,12.02
2023-05-30T10:33:07.537Z,11.97
2023-05-30T10:35:37.098Z,12.16
2023-05-30T10:38:07.975Z,12.30
2023-05-30T10:40:45.713Z,12.36
2023-05-30T10:43:24.708Z,12.50
2023-05-30T10:46:09.498Z,12.58
2023-05-30T10:48:49.151Z,12.57
2023-05-30T10:51:17.724Z,12.78
2023-05-30T10:53:48.148Z,12.75
2023-05-30T10:56:42.500Z,12.81
2023-05-30T10:59:15.383Z,12.75
2023-05-30T11:02:00.673Z,12.89
2023-05-30T11:04:36.408Z,13.00
2023-05-30T11:07:08.725Z,13.39
2023-05-30T11:09:42.234Z,13.65
2023-05-30T11:12:16.034Z,13.72
2023-05-30T11:14:56.637Z,13.78
2023-05-30T11:17:33.583Z,13.52
2023-05-30T11:20:10.114Z,13.30
2023-05-30T11:22:40.448Z,13.36
2023-05-30T11:25:24.579Z,13.38
2023-05-30T11:28:03.308Z,13.41
2023-05-30T11:30:32.004Z,13.55
2023-05-30T11:33:01.961Z,13.74
2023-05-30T11:35:33.498Z,13.59
2023-05-30T11:38:02.735Z,13.46
2023-05-30T11:40:31.208Z,13.17
2023-05-30T11:42:59.770Z,12.87
2023-05-30T11:45:29.359Z,12.61
2023-05-30T11:48:05.341Z,12.83
2023-05-30T11:50:39.378Z,13.35
2023-05-30T11:53:13.728Z,13.35
2023-05-30T11:55:46.346Z,13.51
2023-05-30T11:58:16.057Z,13.19
2023-05-30T12:00:44.684Z,12.97
2023-05-30T12:03:18.615Z,13.41
2023-05-30T12:05:48.876Z,13.58
2023-05-30T12:08:18.969Z,13.33
2023-05-30T12:10:47.632Z,13.08
2023-05-30T12:13:16.079Z,13.01
2023-05-30T12:15:44.913Z,13.02
2023-05-30T12:18:17.888Z,13.27
2023-05-30T12:20:47.375Z,13.20
2023-05-30T12:23:16.001Z,13.02
2023-05-30T12:25:51.401Z,12.81
2023-05-30T12:28:20.001Z,12.67
2023-05-30T12:30:48.847Z,12.58
2023-05-30T12:33:20.452Z,12.59
2023-05-30T12:35:50.060Z,12.53
2023-05-30T12:38:18.630Z,12.52
2023-05-30T12:40:48.948Z,12.65
2023-05-30T12:43:18.144Z,12.69
2023-05-30T12:45:47.786Z,12.66
2023-05-30T12:48:16.379Z,12.51
2023-05-30T12:50:46.217Z,12.61
2023-05-30T12:53:14.594Z,12.76
2023-05-30T12:55:43.111Z,12.85
2023-05-30T12:58:11.536Z,12.84
2023-05-30T13:00:40.012Z,12.86
2023-05-30T13:03:09.249Z,12.91
2023-05-30T13:05:38.017Z,12.86
2023-05-30T13:08:07.873Z,13.24
2023-05-30T13:10:36.325Z,13.43
2023-05-30T13:13:04.776Z,13.38
2023-05-30T13:15:33.072Z,13.22
2023-05-30T13:18:01.480Z,13.21
2023-05-30T13:20:29.944Z,13.32
2023-05-30T13:22:58.544Z,13.71
2023-05-30T13:25:28.397Z,13.49
2023-05-30T13:27:57.390Z,13.16
2023-05-30T13:30:25.771Z,13.03
2023-05-30T13:32:54.317Z,12.95
2023-05-30T13:35:22.854Z,13.05
2023-05-30T13:37:51.392Z,13.00
2023-05-30T13:40:20.213Z,12.92
2023-05-30T13:42:52.582Z,12.95
2023-05-30T13:45:22.032Z,12.87
2023-05-30T13:47:51.812Z,12.86
2023-05-30T13:50:23.681Z,12.68
2023-05-30T13:52:52.278Z,12.52
2023-05-30T13:55:21.092Z,12.41
2023-05-30T13:57:51.015Z,12.34
2023-05-30T14:00:19.615Z,12.27
2023-05-30T14:02:48.097Z,12.34
2023-05-30T14:05:18.729Z,12.33
2023-05-30T14:07:47.495Z,12.20
2023-05-30T14:10:18.405Z,12.13
2023-05-30T14:12:47.075Z,12.16
2023-05-30T14:15:17.040Z,12.22
2023-05-30T14:17:45.819Z,12.07
2023-05-30T14:20:14.754Z,11.88
2023-05-30T14:22:43.272Z,11.80
2023-05-30T14:25:12.228Z,11.73
2023-05-30T14:27:40.626Z,11.68
2023-05-30T14:30:14.219Z,11.69
2023-05-30T14:32:47.136Z,11.61
2023-05-30T14:35:17.054Z,11.63
2023-05-30T14:37:45.955Z,11.57
2023-05-30T14:40:14.955Z,11.55
2023-05-30T14:42:43.531Z,11.52
2023-05-30T14:45:12.378Z,11.57
2023-05-30T14:47:40.851Z,11.55
2023-05-30T14:50:11.723Z,11.54
2023-05-30T14:52:40.462Z,11.54
2023-05-30T14:55:09.632Z,11.45
2023-05-30T14:57:39.950Z,11.38
2023-05-30T15:00:11.039Z,11.48
2023-05-30T15:02:41.052Z,11.48
2023-05-30T15:05:12.002Z,11.38
2023-05-30T15:07:40.675Z,11.34
2023-05-30T15:10:10.090Z,11.32
2023-05-30T15:12:38.549Z,11.22
2023-05-30T15:15:07.994Z,11.14
2023-05-30T15:17:38.486Z,11.10
2023-05-30T15:20:08.309Z,11.13
2023-05-30T15:22:38.286Z,11.19
2023-05-30T15:25:08.099Z,11.21
2023-05-30T15:27:36.565Z,11.15
2023-05-30T15:30:05.466Z,11.11
2023-05-30T15:32:33.988Z,11.16
2023-05-30T15:35:02.925Z,11.15
2023-05-30T15:37:31.327Z,11.22
2023-05-30T15:40:02.303Z,11.29
2023-05-30T15:42:32.222Z,11.28
2023-05-30T15:45:00.813Z,11.25
2023-05-30T15:47:29.388Z,11.27
2023-05-30T15:49:58.006Z,11.25
2023-05-30T15:52:26.879Z,11.14
2023-05-30T15:54:57.394Z,11.06
2023-05-30T15:57:27.932Z,11.11
2023-05-30T15:59:56.613Z,11.07
2023-05-30T16:02:26.677Z,11.02
2023-05-30T16:04:55.320Z,11.00
2023-05-30T16:07:23.774Z,11.06
2023-05-30T16:09:52.298Z,11.02
2023-05-30T16:12:22.669Z,11.02
2023-05-30T16:14:52.723Z,11.05
2023-05-30T16:17:21.521Z,11.05
2023-05-30T16:19:50.043Z,11.08
2023-05-30T16:22:18.523Z,11.14
2023-05-30T16:24:46.944Z,11.18
2023-05-30T16:27:15.948Z,11.22
2023-05-30T16:29:44.293Z,11.21
2023-05-30T16:32:15.322Z,11.15
2023-05-30T16:34:43.978Z,11.04
2023-05-30T16:37:12.428Z,10.97
2023-05-30T16:39:41.013Z,10.95
2023-05-30T16:42:10.249Z,10.99
2023-05-30T16:44:38.759Z,10.98
2023-05-30T16:47:08.098Z,10.96
2023-05-30T16:49:38.166Z,10.89
2023-05-30T16:52:08.405Z,10.83
2023-05-30T16:54:36.958Z,10.85
2023-05-30T16:57:06.766Z,10.88
2023-05-30T16:59:35.246Z,10.96
2023-05-30T17:02:03.652Z,11.02
2023-05-30T17:04:32.160Z,10.99
2023-05-30T17:07:02.249Z,10.91
2023-05-30T17:09:30.965Z,10.92
2023-05-30T17:12:00.371Z,10.93
2023-05-30T17:14:28.953Z,10.94
2023-05-30T17:16:58.063Z,10.97
2023-05-30T17:19:29.779Z,10.98
2023-05-30T17:21:58.828Z,10.95
2023-05-30T17:24:28.716Z,10.92
2023-05-30T17:26:57.255Z,10.95
2023-05-30T17:29:25.629Z,11.03
2023-05-30T17:31:54.123Z,11.13
2023-05-30T17:34:22.523Z,11.21
2023-05-30T17:36:50.906Z,11.24
2023-05-30T17:39:19.657Z,11.26
2023-05-30T17:41:49.758Z,11.27
2023-05-30T17:44:19.308Z,11.25
2023-05-30T17:46:48.098Z,11.22
2023-05-30T17:49:16.561Z,11.21
2023-05-30T17:51:45.127Z,11.27
2023-05-30T17:54:15.947Z,11.35
2023-05-30T17:56:44.512Z,11.32
2023-05-30T17:59:14.448Z,11.31
2023-05-30T18:01:43.054Z,11.30
2023-05-30T18:04:11.525Z,11.23
2023-05-30T18:06:39.968Z,11.20
2023-05-30T18:09:10.082Z,11.19
2023-05-30T18:11:39.336Z,11.18
2023-05-30T18:14:08.004Z,11.19
2023-05-30T18:16:37.867Z,11.23
2023-05-30T18:19:06.341Z,11.27
2023-05-30T18:21:34.839Z,11.29
2023-05-30T18:24:04.518Z,11.31
2023-05-30T18:26:33.138Z,11.31
2023-05-30T18:29:01.614Z,11.33
2023-05-30T18:31:30.123Z,11.32
2023-05-30T18:34:01.511Z,11.29
2023-05-30T18:36:30.006Z,11.22
2023-05-30T18:39:00.415Z,11.18
2023-05-30T18:41:28.942Z,11.16
2023-05-30T18:43:58.008Z,11.22
2023-05-30T18:46:26.976Z,11.17
2023-05-30T18:48:57.735Z,11.11
2023-05-30T18:51:27.667Z,11.06
2023-05-30T18:53:56.267Z,11.01
2023-05-30T18:56:26.549Z,10.98
2023-05-30T18:58:55.035Z,10.96
2023-05-30T19:01:23.634Z,10.93
2023-05-30T19:03:53.316Z,10.85
2023-05-30T19:06:23.343Z,10.79
2023-05-30T19:08:53.536Z,10.71
2023-05-30T19:11:22.848Z,10.65
2023-05-30T19:13:51.342Z,10.60
2023-05-30T19:16:19.806Z,10.55
2023-05-30T19:18:48.857Z,10.48
2023-05-30T19:21:17.517Z,10.45
2023-05-30T19:23:46.011Z,10.40
2023-05-30T19:26:18.486Z,10.35
2023-05-30T19:28:47.461Z,10.30
2023-05-30T19:31:16.320Z,10.24
2023-05-30T19:33:46.122Z,10.20
2023-05-30T19:36:14.881Z,10.14
2023-05-30T19:38:44.211Z,10.10
2023-05-30T19:41:12.659Z,10.06
2023-05-30T19:43:42.453Z,10.01
2023-05-30T19:46:12.245Z,9.98
2023-05-30T19:48:41.080Z,9.96
2023-05-30T19:51:09.540Z,9.92
2023-05-30T19:53:38.320Z,9.85
2023-05-30T19:56:06.920Z,9.80
2023-05-30T19:58:35.323Z,9.78
2023-05-30T20:01:05.652Z,9.77
2023-05-30T20:03:34.684Z,9.77
2023-05-30T20:06:03.668Z,9.79
2023-05-30T20:08:32.670Z,9.76
2023-05-30T20:11:01.377Z,9.76
2023-05-30T20:13:30.129Z,9.74
2023-05-30T20:15:59.066Z,9.72
2023-05-30T20:18:29.091Z,9.71
2023-05-30T20:20:58.915Z,9.71
2023-05-30T20:23:29.060Z,9.70
2023-05-30T20:25:57.863Z,9.68
2023-05-30T20:28:26.268Z,9.63
2023-05-30T20:30:55.635Z,9.60
2023-05-30T20:33:24.060Z,9.59
2023-05-30T20:35:54.096Z,9.56
2023-05-30T20:38:22.628Z,9.53
2023-05-30T20:40:51.688Z,9.50
2023-05-30T20:43:20.124Z,9.47
2023-05-30T20:45:49.849Z,9.45
2023-05-30T20:48:18.343Z,9.44
2023-05-30T20:50:46.676Z,9.42
2023-05-30T20:53:16.516Z,9.39
2023-05-30T20:55:47.351Z,9.34
2023-05-30T20:58:18.253Z,9.38
2023-05-30T21:00:46.816Z,9.38
2023-05-30T21:03:15.312Z,9.33
2023-05-30T21:05:43.913Z,9.32
2023-05-30T21:08:12.303Z,9.29
2023-05-30T21:10:43.554Z,9.30
2023-05-30T21:13:12.675Z,9.30
2023-05-30T21:15:42.873Z,9.31
2023-05-30T21:18:11.777Z,9.26
2023-05-30T21:20:40.228Z,9.27
2023-05-30T21:23:08.764Z,9.26
2023-05-30T21:25:37.143Z,9.26
2023-05-30T21:28:07.145Z,9.20
2023-05-30T21:30:36.167Z,9.14
2023-05-30T21:33:04.633Z,9.07
2023-05-30T21:35:34.841Z,9.04
2023-05-30T21:38:03.380Z,9.01
2023-05-30T21:40:31.810Z,9.00
2023-05-30T21:43:00.363Z,8.97
2023-05-30T21:45:30.123Z,8.92
2023-05-30T21:47:58.952Z,8.89
2023-05-30T21:50:27.324Z,8.87
2023-05-30T21:52:55.696Z,8.85
2023-05-30T21:55:24.161Z,8.85
2023-05-30T21:57:52.913Z,8.82
2023-05-30T22:00:21.330Z,8.79
2023-05-30T22:02:51.326Z,8.74
2023-05-30T22:05:19.851Z,8.70
2023-05-30T22:07:48.193Z,8.65
2023-05-30T22:10:16.762Z,8.63
2023-05-30T22:12:45.198Z,8.64
2023-05-30T22:15:13.621Z,8.64
2023-05-30T22:17:42.039Z,8.63
2023-05-30T22:20:12.227Z,8.60
2023-05-30T22:22:40.882Z,8.58
2023-05-30T22:25:09.890Z,8.61
2023-05-30T22:27:38.482Z,8.59
2023-05-30T22:30:09.906Z,8.59
2023-05-30T22:32:38.710Z,8.58
2023-05-30T22:35:07.686Z,8.58
2023-05-30T22:37:37.532Z,8.52
2023-05-30T22:40:06.676Z,8.51
2023-05-30T22:42:35.109Z,8.46
2023-05-30T22:45:03.846Z,8.46
2023-05-30T22:47:32.232Z,8.44
2023-05-30T22:50:00.646Z,8.45
2023-05-30T22:52:29.064Z,8.43
2023-05-30T22:54:58.922Z,8.46
2023-05-30T22:57:27.403Z,8.46
2023-05-30T22:59:55.771Z,8.42
2023-05-30T23:02:24.626Z,8.38
2023-05-30T23:04:53.257Z,8.38
2023-05-30T23:07:21.629Z,8.35
2023-05-30T23:09:50.023Z,8.32
2023-05-30T23:12:19.854Z,8.28
2023-05-30T23:14:48.262Z,8.28
2023-05-30T23:17:16.684Z,8.25
2023-05-30T23:19:45.154Z,8.20
2023-05-30T23:22:13.600Z,8.14
2023-05-30T23:24:42.025Z,8.08
2023-05-30T23:27:10.439Z,8.07
2023-05-30T23:29:40.385Z,8.08
2023-05-30T23:32:09.593Z,8.06
2023-05-30T23:34:38.083Z,8.02
2023-05-30T23:37:07.062Z,8.00
2023-05-30T23:39:35.479Z,8.03
2023-05-30T23:42:05.009Z,8.03
2023-05-30T23:44:33.419Z,8.02
2023-05-30T23:47:03.280Z,7.98
2023-05-30T23:49:31.816Z,7.96
2023-05-30T23:52:00.181Z,7.97
2023-05-30T23:54:28.936Z,7.98
2023-05-30T23:56:57.325Z,8.01
2023-05-30T23:59:25.738Z,8.02
